Pagrindinis puslapis
METAR-TAF:

METAR-TAF

Oro uostai :

Jämsä, Suomija

platuma: 61-51N, ilguma: 024-48E, Aukštis: 143 m

Dabartinis oras

Ataskaita buvo paskelbta 39 minutes, ne 07:20 UTC
Vėjas 7 kt iš Pietų/Pietryčių, svyruoja nuo Rytų ir Pietų
Temperatūra 12°C
Drėgmė 35%
Slėgis 1018 hPa
Matomumas 10 km arba daugiau
nėra debesų žemiau 1500 m ir nėra kamuolinių lietaus debesų

METAR: EFHA 200720Z 15007KT 100V190 CAVOK 12/M03 Q1018

Laikas: 10:59 (07:59 UTC)

Prognozė

Ataskaita buvo paskelbta 2 valandos ir 31 minutes, ne 05:28 UTC
Prognozė galioja nuo 20 metu 06 UTC su 20 metu 15 UTC
Vėjas 8 kt iš Pietryčių
Matomumas 10 km arba daugiau
nėra debesų žemiau 1500 m ir nėra kamuolinių lietaus debesų

TAF: EFHA 200528Z 2006/2015 13008KT CAVOK

Orai ataskaitas ir orų prognozės (METAR, TAF).

turimą stotys yra geltonos ir raudonos taškus žemėlapyje.

Perkelti pele per norėdami pamatyti stoties vardą.

Tada spustelėkite, norėdami matyti oro stebėjimo ir prognozės.

Norėdami pakeisti žemėlapį: spustelėkite ant žalios mygtukų su juodo kryžiaus žemyn,; žalią mygtuką su brūkšneliu, jei norite nutolinti; arba žalių rodyklių gretimoms žemėlapius.


METAR-TAF: